createdAt,value
2018-05-13T00:01:20.105Z,4.57
2018-05-13T00:03:47.477Z,5.50
2018-05-13T00:06:15.072Z,3.93
2018-05-13T00:08:42.467Z,4.07
2018-05-13T00:11:10.387Z,4.30
2018-05-13T00:13:37.749Z,3.47
2018-05-13T00:16:05.173Z,7.13
2018-05-13T00:18:32.559Z,5.63
2018-05-13T00:20:59.944Z,5.90
2018-05-13T00:23:27.760Z,5.63
2018-05-13T00:25:55.140Z,7.77
2018-05-13T00:28:22.514Z,8.10
2018-05-13T00:30:50.311Z,6.10
2018-05-13T00:33:17.668Z,5.97
2018-05-13T00:35:45.187Z,8.37
2018-05-13T00:38:12.718Z,7.13
2018-05-13T00:40:40.069Z,7.70
2018-05-13T00:43:07.563Z,7.97
2018-05-13T00:45:35.308Z,6.90
2018-05-13T00:48:02.699Z,6.17
2018-05-13T00:50:30.090Z,6.37
2018-05-13T00:53:01.434Z,7.10
2018-05-13T00:55:28.813Z,15.93
2018-05-13T00:57:56.213Z,4.97
2018-05-13T01:00:23.623Z,6.37
2018-05-13T01:02:51.076Z,6.73
2018-05-13T01:05:18.453Z,5.17
2018-05-13T01:07:45.865Z,5.57
2018-05-13T01:10:13.290Z,8.10
2018-05-13T01:12:41.036Z,8.50
2018-05-13T01:15:10.265Z,5.67
2018-05-13T01:17:37.648Z,7.57
2018-05-13T01:20:05.100Z,8.30
2018-05-13T01:22:32.491Z,7.90
2018-05-13T01:24:59.855Z,5.87
2018-05-13T01:27:27.712Z,9.43
2018-05-13T01:29:55.070Z,12.63
2018-05-13T01:32:22.432Z,6.57
2018-05-13T01:34:49.872Z,7.70
2018-05-13T01:37:17.297Z,7.83
2018-05-13T01:39:44.681Z,11.20
2018-05-13T01:42:12.138Z,9.37
2018-05-13T01:44:39.926Z,8.43
2018-05-13T01:47:07.324Z,12.40
2018-05-13T01:49:34.684Z,7.50
2018-05-13T01:52:02.197Z,7.37
2018-05-13T01:54:29.566Z,6.70
2018-05-13T01:56:57.326Z,8.13
2018-05-13T01:59:24.695Z,8.17
2018-05-13T02:01:52.467Z,8.17
2018-05-13T02:04:20.239Z,12.73
2018-05-13T02:12:26.624Z,11.57
2018-05-13T02:14:54.616Z,8.93
2018-05-13T02:17:21.928Z,8.87
2018-05-13T02:19:49.252Z,8.03
2018-05-13T02:22:16.639Z,7.67
2018-05-13T02:24:44.828Z,10.20
2018-05-13T02:27:12.120Z,16.53
2018-05-13T02:29:39.397Z,9.10
2018-05-13T02:32:06.700Z,8.17
2018-05-13T02:34:34.000Z,9.10
2018-05-13T02:37:01.421Z,17.47
2018-05-13T02:39:28.705Z,10.53
2018-05-13T02:41:55.987Z,11.13
2018-05-13T02:44:23.681Z,11.73
2018-05-13T02:46:51.114Z,13.07
2018-05-13T02:49:18.438Z,13.27
2018-05-13T02:51:46.250Z,13.73
2018-05-13T02:54:13.670Z,11.27
2018-05-13T02:56:41.049Z,13.87
2018-05-13T02:59:08.401Z,9.60
2018-05-13T03:01:35.713Z,12.97
2018-05-13T03:04:03.073Z,11.00
2018-05-13T03:06:30.828Z,14.63
2018-05-13T03:08:58.436Z,19.40
2018-05-13T03:11:26.541Z,10.27
2018-05-13T03:13:53.945Z,15.63
2018-05-13T03:16:21.292Z,13.97
2018-05-13T03:18:49.045Z,12.07
2018-05-13T03:21:16.789Z,11.53
2018-05-13T03:23:44.125Z,13.57
2018-05-13T03:26:11.495Z,14.63
2018-05-13T03:28:38.833Z,13.03
2018-05-13T03:31:06.639Z,11.83
2018-05-13T03:33:34.409Z,11.83
2018-05-13T03:36:01.737Z,11.60
2018-05-13T03:38:29.483Z,11.40
2018-05-13T03:40:57.824Z,13.57
2018-05-13T03:43:25.177Z,11.00
2018-05-13T03:45:52.528Z,11.70
2018-05-13T03:48:19.874Z,11.80
2018-05-13T03:50:47.389Z,12.17
2018-05-13T03:53:14.703Z,12.63
2018-05-13T03:55:42.009Z,11.07
2018-05-13T03:58:09.721Z,18.93
2018-05-13T04:00:37.065Z,8.57
2018-05-13T04:03:04.400Z,13.83
2018-05-13T04:05:31.729Z,10.97
2018-05-13T04:11:23.241Z,11.40
2018-05-13T04:14:02.543Z,10.63
2018-05-13T04:16:29.890Z,9.80
2018-05-13T04:18:57.775Z,12.00
2018-05-13T04:21:25.171Z,14.27
2018-05-13T04:23:52.934Z,18.53
2018-05-13T04:26:21.054Z,15.80
2018-05-13T04:28:48.435Z,8.93
2018-05-13T04:31:15.838Z,12.07
2018-05-13T04:33:43.212Z,12.07
2018-05-13T04:36:10.736Z,9.93
2018-05-13T04:38:38.498Z,12.67
2018-05-13T04:41:06.315Z,9.33
2018-05-13T04:43:33.694Z,15.07
2018-05-13T04:46:01.089Z,14.60
2018-05-13T04:48:28.492Z,12.53
2018-05-13T04:51:04.254Z,10.70
2018-05-13T04:53:31.657Z,15.73
2018-05-13T04:55:59.365Z,13.07
2018-05-13T04:58:26.728Z,13.20
2018-05-13T05:00:54.103Z,15.93
2018-05-13T05:03:21.485Z,14.80
2018-05-13T05:05:49.268Z,13.80
2018-05-13T05:08:16.634Z,15.03
2018-05-13T05:10:44.022Z,13.90
2018-05-13T05:13:11.396Z,16.33
2018-05-13T05:15:38.783Z,15.83
2018-05-13T05:18:06.188Z,15.07
2018-05-13T05:20:33.552Z,16.07
2018-05-13T05:23:00.932Z,14.00
2018-05-13T05:25:28.706Z,17.00
2018-05-13T05:27:56.566Z,14.77
2018-05-13T05:30:24.363Z,12.77
2018-05-13T05:32:51.728Z,12.83
2018-05-13T05:35:19.151Z,15.63
2018-05-13T05:37:46.550Z,11.80
2018-05-13T05:40:13.898Z,11.93
2018-05-13T05:42:41.290Z,12.10
2018-05-13T05:45:09.093Z,10.93
2018-05-13T05:47:36.469Z,14.67
2018-05-13T05:50:03.904Z,14.67
2018-05-13T05:52:31.731Z,14.63
2018-05-13T05:54:59.116Z,13.00
2018-05-13T05:57:26.903Z,10.63
2018-05-13T05:59:54.716Z,11.57
2018-05-13T06:02:22.512Z,12.00
2018-05-13T06:04:50.287Z,13.37
2018-05-13T06:07:17.765Z,14.50
2018-05-13T06:09:45.226Z,15.63
2018-05-13T06:12:12.717Z,13.77
2018-05-13T06:14:40.626Z,11.47
2018-05-13T06:17:08.560Z,10.20
2018-05-13T06:19:36.020Z,12.10
2018-05-13T06:22:03.526Z,10.10
2018-05-13T06:24:30.965Z,11.20
2018-05-13T06:26:59.035Z,10.57
2018-05-13T06:29:26.520Z,10.77
2018-05-13T06:31:54.445Z,8.67
2018-05-13T06:34:22.355Z,10.47
2018-05-13T06:36:55.150Z,11.40
2018-05-13T06:39:22.609Z,11.50
2018-05-13T06:41:52.229Z,10.70
2018-05-13T06:44:19.695Z,13.53
2018-05-13T06:46:47.232Z,9.77
2018-05-13T06:49:14.788Z,9.40
2018-05-13T06:51:43.083Z,8.47
2018-05-13T06:54:10.899Z,9.17
2018-05-13T06:56:38.446Z,8.47
2018-05-13T06:59:06.305Z,7.40
2018-05-13T07:01:34.289Z,7.77
2018-05-13T07:04:02.276Z,14.43
2018-05-13T07:06:29.766Z,9.97
2018-05-13T07:08:57.121Z,9.80
2018-05-13T07:11:24.616Z,12.37
2018-05-13T07:13:52.002Z,11.83
2018-05-13T07:16:19.489Z,9.07
2018-05-13T07:18:47.144Z,8.80
2018-05-13T07:21:14.519Z,8.87
2018-05-13T07:23:41.983Z,9.30
2018-05-13T07:26:09.747Z,7.43
2018-05-13T07:28:40.268Z,7.67
2018-05-13T07:31:07.681Z,8.47
2018-05-13T07:33:35.479Z,8.30
2018-05-13T07:36:02.846Z,7.67
2018-05-13T07:38:30.241Z,11.37
2018-05-13T07:40:58.141Z,7.03
2018-05-13T07:43:26.746Z,8.13
2018-05-13T07:45:54.118Z,12.00
2018-05-13T07:48:22.380Z,8.03
2018-05-13T07:50:51.941Z,7.30
2018-05-13T07:53:19.907Z,9.20
2018-05-13T07:55:48.086Z,7.70
2018-05-13T07:58:15.824Z,8.13
2018-05-13T08:00:43.511Z,8.90
2018-05-13T08:03:11.377Z,7.70
2018-05-13T08:05:39.243Z,9.03
2018-05-13T08:08:07.002Z,7.30
2018-05-13T08:10:37.209Z,8.33
2018-05-13T08:13:04.576Z,8.73
2018-05-13T08:15:31.940Z,7.23
2018-05-13T08:18:00.093Z,7.87
2018-05-13T08:20:27.522Z,12.60
2018-05-13T08:22:54.840Z,10.88
2018-05-13T08:25:22.230Z,7.93
2018-05-13T08:27:49.593Z,8.63
2018-05-13T08:30:17.061Z,7.55
2018-05-13T08:32:44.432Z,8.80
2018-05-13T08:35:11.791Z,7.28
2018-05-13T08:37:39.884Z,7.47
2018-05-13T08:40:07.661Z,7.50
2018-05-13T08:42:35.006Z,7.37
2018-05-13T08:45:02.808Z,7.47
2018-05-13T08:47:30.203Z,7.40
2018-05-13T08:49:57.565Z,8.32
2018-05-13T08:52:25.066Z,8.77
2018-05-13T08:54:52.417Z,9.90
2018-05-13T08:57:19.784Z,7.65
2018-05-13T08:59:47.153Z,7.70
2018-05-13T09:02:14.521Z,8.70
2018-05-13T09:04:42.122Z,7.68
2018-05-13T09:07:09.884Z,8.68
2018-05-13T09:09:37.654Z,7.78
2018-05-13T09:12:05.420Z,8.13
2018-05-13T09:14:33.593Z,7.90
2018-05-13T09:17:01.358Z,7.95
2018-05-13T09:19:29.126Z,8.02
2018-05-13T09:21:56.992Z,7.72
2018-05-13T09:24:25.053Z,8.52
2018-05-13T09:26:53.944Z,7.32
2018-05-13T09:29:21.739Z,7.35
2018-05-13T09:31:49.174Z,7.30
2018-05-13T09:34:16.730Z,7.53
2018-05-13T09:36:44.522Z,7.37
2018-05-13T09:39:11.949Z,8.13
2018-05-13T09:41:40.022Z,7.50
2018-05-13T09:44:07.982Z,7.87
2018-05-13T09:46:35.450Z,8.35
2018-05-13T09:49:03.439Z,7.32
2018-05-13T09:51:31.113Z,8.57
2018-05-13T09:53:58.475Z,10.88
2018-05-13T09:56:25.995Z,7.30
2018-05-13T09:58:53.590Z,8.32
2018-05-13T10:01:20.998Z,7.90
2018-05-13T10:03:48.454Z,8.70
2018-05-13T10:06:17.074Z,8.13
2018-05-13T10:08:44.631Z,8.00
2018-05-13T10:11:12.379Z,7.70
2018-05-13T10:13:40.348Z,7.53
2018-05-13T10:16:08.103Z,7.85
2018-05-13T10:18:35.698Z,8.88
2018-05-13T10:21:03.096Z,8.25
2018-05-13T10:23:31.000Z,10.50
2018-05-13T10:25:59.078Z,7.78
2018-05-13T10:28:26.838Z,11.15
2018-05-13T10:30:54.618Z,8.20
2018-05-13T10:33:22.164Z,8.40
2018-05-13T10:35:50.266Z,7.47
2018-05-13T10:38:17.681Z,7.32
2018-05-13T10:40:45.451Z,7.87
2018-05-13T10:43:13.227Z,10.00
2018-05-13T10:45:41.092Z,7.37
2018-05-13T10:48:17.360Z,7.15
2018-05-13T10:50:44.791Z,6.87
2018-05-13T10:53:12.266Z,8.07
2018-05-13T10:55:40.135Z,7.72
2018-05-13T10:58:07.998Z,6.95
2018-05-13T11:00:35.968Z,9.55
2018-05-13T11:03:03.746Z,7.12
2018-05-13T11:05:31.127Z,8.35
2018-05-13T11:07:58.854Z,6.90
2018-05-13T11:10:26.818Z,7.43
2018-05-13T11:12:54.803Z,8.52
2018-05-13T11:15:22.571Z,6.93
2018-05-13T11:17:50.046Z,6.55
2018-05-13T11:20:17.797Z,7.35
2018-05-13T11:22:45.338Z,9.50
2018-05-13T11:25:13.097Z,7.07
2018-05-13T11:27:41.356Z,7.53
2018-05-13T11:30:08.844Z,7.03
2018-05-13T11:32:36.821Z,7.28
2018-05-13T11:35:04.270Z,6.97
2018-05-13T11:37:32.641Z,9.50
2018-05-13T11:40:00.445Z,7.85
2018-05-13T11:42:27.872Z,8.68
2018-05-13T11:44:55.836Z,7.75
2018-05-13T11:47:23.730Z,9.20
2018-05-13T11:49:51.079Z,6.22
2018-05-13T11:52:35.821Z,9.48
2018-05-13T11:55:03.898Z,7.35
2018-05-13T11:57:31.663Z,7.80
2018-05-13T11:59:59.422Z,6.62
2018-05-13T12:02:27.585Z,8.73
2018-05-13T12:04:54.997Z,7.03
2018-05-13T12:07:22.420Z,7.07
2018-05-13T12:09:49.826Z,6.65
2018-05-13T12:12:17.191Z,7.37
2018-05-13T12:14:44.642Z,6.25
2018-05-13T12:17:12.343Z,7.87
2018-05-13T12:19:40.925Z,7.10
2018-05-13T12:22:09.094Z,5.28
2018-05-13T12:24:37.100Z,6.15
2018-05-13T12:27:04.535Z,6.15
2018-05-13T12:29:34.460Z,7.22
2018-05-13T12:32:02.720Z,5.53
2018-05-13T12:34:30.471Z,8.23
2018-05-13T12:36:58.048Z,8.18
2018-05-13T12:39:26.118Z,5.80
2018-05-13T12:41:53.690Z,6.87
2018-05-13T12:44:21.482Z,7.10
2018-05-13T12:46:48.939Z,7.53
2018-05-13T12:49:16.357Z,6.80
2018-05-13T12:51:44.115Z,6.78
2018-05-13T12:54:11.783Z,6.07
2018-05-13T12:56:54.199Z,6.95
2018-05-13T12:59:22.256Z,5.80
2018-05-13T13:01:49.628Z,6.10
2018-05-13T13:04:17.565Z,5.70
2018-05-13T13:06:45.148Z,7.30
2018-05-13T13:09:12.969Z,6.82
2018-05-13T13:11:40.331Z,6.30
2018-05-13T13:14:07.742Z,5.80
2018-05-13T13:16:35.259Z,8.30
2018-05-13T13:19:02.946Z,7.07
2018-05-13T13:21:30.818Z,7.35
2018-05-13T13:23:58.688Z,6.15
2018-05-13T13:26:26.565Z,5.72
2018-05-13T13:28:54.644Z,7.50
2018-05-13T13:31:22.109Z,7.28
2018-05-13T13:33:49.490Z,6.90
2018-05-13T13:36:17.095Z,8.05
2018-05-13T13:38:44.963Z,6.53
2018-05-13T13:41:12.741Z,10.77
2018-05-13T13:43:40.303Z,7.00
2018-05-13T13:46:07.958Z,6.75
2018-05-13T13:48:35.407Z,6.55
2018-05-13T13:51:03.284Z,7.00
2018-05-13T13:53:30.744Z,6.75
2018-05-13T13:55:58.295Z,7.30
2018-05-13T13:58:26.266Z,6.28
2018-05-13T14:00:54.129Z,6.18
2018-05-13T14:03:21.946Z,6.05
2018-05-13T14:05:49.327Z,7.65
2018-05-13T14:08:16.808Z,6.35
2018-05-13T14:10:44.823Z,6.72
2018-05-13T14:13:12.245Z,6.12
2018-05-13T14:15:39.797Z,5.47
2018-05-13T14:18:07.547Z,6.43
2018-05-13T14:20:35.438Z,6.72
2018-05-13T14:23:03.366Z,10.98
2018-05-13T14:25:30.727Z,9.80
2018-05-13T14:27:58.117Z,5.93
2018-05-13T14:30:25.901Z,7.90
2018-05-13T14:32:53.277Z,7.53
2018-05-13T14:35:20.787Z,9.02
2018-05-13T14:37:48.552Z,8.23
2018-05-13T14:40:16.314Z,7.18
2018-05-13T14:42:44.352Z,7.80
2018-05-13T14:45:14.566Z,7.25
2018-05-13T14:47:41.999Z,7.18
2018-05-13T14:50:09.363Z,9.73
2018-05-13T14:52:36.781Z,7.50
2018-05-13T14:55:04.344Z,7.53
2018-05-13T14:57:32.140Z,7.45
2018-05-13T14:59:59.865Z,8.02
2018-05-13T15:02:27.610Z,7.20
2018-05-13T15:04:55.021Z,6.32
2018-05-13T15:07:30.250Z,6.53
2018-05-13T15:09:57.654Z,6.25
2018-05-13T15:12:25.065Z,7.12
2018-05-13T15:14:52.475Z,5.90
2018-05-13T15:17:20.176Z,6.32
2018-05-13T15:19:49.528Z,5.65
2018-05-13T15:22:17.945Z,8.30
2018-05-13T15:24:46.438Z,5.85
2018-05-13T15:27:14.560Z,5.22
2018-05-13T15:29:41.995Z,7.18
2018-05-13T15:32:09.442Z,7.07
2018-05-13T15:34:36.803Z,7.82
2018-05-13T15:37:04.336Z,6.90
2018-05-13T15:39:31.747Z,5.10
2018-05-13T15:41:59.443Z,5.17
2018-05-13T15:44:27.352Z,4.47
2018-05-13T15:46:54.952Z,7.53
2018-05-13T15:49:29.216Z,3.87
2018-05-13T15:52:06.339Z,3.33
2018-05-13T15:54:34.832Z,7.23
2018-05-13T15:57:03.140Z,3.33
2018-05-13T15:59:30.565Z,3.67
2018-05-13T16:01:58.115Z,3.50
2018-05-13T16:04:25.591Z,5.37
2018-05-13T16:06:53.045Z,4.30
2018-05-13T16:09:20.455Z,4.67
2018-05-13T16:11:47.869Z,4.60
2018-05-13T16:14:15.297Z,4.17
2018-05-13T16:16:42.758Z,4.33
2018-05-13T16:19:10.325Z,4.70
2018-05-13T16:21:38.097Z,5.23
2018-05-13T16:24:05.542Z,5.00
2018-05-13T16:26:33.286Z,6.77
2018-05-13T16:29:00.646Z,5.93
2018-05-13T16:31:28.053Z,5.83
2018-05-13T16:33:55.816Z,6.30
2018-05-13T16:36:23.577Z,7.07
2018-05-13T16:38:51.478Z,5.43
2018-05-13T16:41:18.826Z,6.80
2018-05-13T16:43:46.211Z,6.40
2018-05-13T16:46:14.073Z,10.57
2018-05-13T16:48:41.794Z,9.10
2018-05-13T16:51:09.610Z,10.00
2018-05-13T16:53:37.042Z,11.53
2018-05-13T16:56:04.483Z,8.23
2018-05-13T16:58:32.265Z,5.87
2018-05-13T17:00:59.664Z,10.60
2018-05-13T17:03:28.286Z,7.73
2018-05-13T17:05:56.076Z,6.60
2018-05-13T17:08:23.459Z,8.30
2018-05-13T17:10:50.800Z,8.93
2018-05-13T17:13:18.211Z,10.90
2018-05-13T17:15:46.059Z,7.83
2018-05-13T17:18:13.463Z,10.47
2018-05-13T17:20:40.817Z,7.90
2018-05-13T17:23:08.220Z,7.63
2018-05-13T17:25:35.874Z,8.73
2018-05-13T17:28:03.279Z,9.70
2018-05-13T17:30:30.640Z,11.07
2018-05-13T17:32:58.176Z,8.43
2018-05-13T17:35:25.923Z,7.30
2018-05-13T17:37:53.399Z,7.53
2018-05-13T17:40:21.265Z,9.80
2018-05-13T17:42:49.187Z,6.77
2018-05-13T17:45:24.476Z,6.70
2018-05-13T17:47:52.464Z,8.47
2018-05-13T17:50:20.009Z,10.17
2018-05-13T17:52:48.077Z,9.60
2018-05-13T17:55:16.076Z,9.90
2018-05-13T17:57:43.521Z,10.03
2018-05-13T18:00:11.167Z,7.40
2018-05-13T18:02:44.563Z,10.97
2018-05-13T18:05:12.639Z,10.57
2018-05-13T18:07:40.017Z,7.40
2018-05-13T18:10:07.548Z,11.33
2018-05-13T18:12:36.625Z,16.93
2018-05-13T18:15:04.307Z,13.10
2018-05-13T18:17:32.175Z,7.57
2018-05-13T18:20:00.247Z,6.80
2018-05-13T18:22:28.047Z,9.07
2018-05-13T18:24:56.509Z,9.63
2018-05-13T18:27:24.373Z,7.70
2018-05-13T18:29:52.244Z,7.40
2018-05-13T18:32:19.790Z,5.40
2018-05-13T18:34:48.007Z,6.70
2018-05-13T18:37:15.345Z,4.67
2018-05-13T18:39:42.962Z,5.13
2018-05-13T18:42:10.318Z,5.27
2018-05-13T18:44:38.060Z,3.20
2018-05-13T18:47:05.474Z,6.37
2018-05-13T18:49:32.937Z,8.23
2018-05-13T18:52:00.339Z,11.20
2018-05-13T18:54:27.818Z,12.03
2018-05-13T18:56:55.228Z,6.57
2018-05-13T18:59:22.740Z,9.40
2018-05-13T19:01:50.403Z,6.27
2018-05-13T19:04:18.390Z,7.57
2018-05-13T19:06:46.650Z,7.40
2018-05-13T19:09:15.031Z,7.63
2018-05-13T19:11:42.896Z,6.67
2018-05-13T19:14:11.186Z,7.17
2018-05-13T19:16:39.056Z,8.63
2018-05-13T19:19:07.219Z,6.13
2018-05-13T19:21:34.593Z,5.03
2018-05-13T19:24:02.456Z,4.90
2018-05-13T19:26:29.865Z,5.70
2018-05-13T19:29:14.875Z,5.27
2018-05-13T19:31:42.732Z,5.93
2018-05-13T19:34:10.501Z,4.90
2018-05-13T19:36:38.168Z,5.90
2018-05-13T19:39:14.650Z,9.93
2018-05-13T19:41:42.091Z,8.40
2018-05-13T19:44:10.053Z,4.93
2018-05-13T19:46:38.103Z,6.60
2018-05-13T19:49:06.004Z,4.37
2018-05-13T19:51:33.483Z,3.63
2018-05-13T19:54:01.213Z,9.87
2018-05-13T19:56:29.593Z,7.43
2018-05-13T19:58:57.561Z,7.70
2018-05-13T20:01:25.363Z,3.93
2018-05-13T20:03:52.940Z,4.53
2018-05-13T20:06:20.552Z,4.10
2018-05-13T20:08:48.174Z,4.77
2018-05-13T20:11:15.717Z,5.30
2018-05-13T20:13:43.157Z,9.07
2018-05-13T20:16:10.540Z,5.87
2018-05-13T20:18:38.041Z,4.53
2018-05-13T20:21:05.838Z,4.07
2018-05-13T20:23:33.335Z,3.97
2018-05-13T20:26:00.823Z,3.93
2018-05-13T20:28:28.721Z,8.53
2018-05-13T20:30:56.251Z,9.10
2018-05-13T20:33:24.126Z,5.90
2018-05-13T20:35:51.991Z,8.23
2018-05-13T20:38:19.958Z,6.23
2018-05-13T20:40:47.822Z,6.83
2018-05-13T20:43:16.005Z,6.67
2018-05-13T20:45:43.971Z,5.10
2018-05-13T20:48:12.037Z,4.37
2018-05-13T20:50:40.938Z,9.17
2018-05-13T20:53:08.386Z,5.40
2018-05-13T20:55:36.263Z,6.20
2018-05-13T20:58:04.131Z,7.93
2018-05-13T21:00:33.025Z,4.10
2018-05-13T21:03:01.093Z,4.43
2018-05-13T21:05:28.951Z,7.30
2018-05-13T21:07:56.720Z,6.03
2018-05-13T21:10:24.592Z,3.57
2018-05-13T21:12:52.659Z,4.73
2018-05-13T21:15:20.610Z,3.77
2018-05-13T21:17:48.088Z,6.00
2018-05-13T21:20:16.054Z,4.57
2018-05-13T21:22:44.746Z,3.57
2018-05-13T21:25:13.134Z,3.47
2018-05-13T21:27:41.189Z,5.50
2018-05-13T21:30:09.156Z,3.13
2018-05-13T21:32:36.518Z,7.27
2018-05-13T21:35:04.491Z,3.20
2018-05-13T21:37:32.246Z,3.83
2018-05-13T21:40:00.047Z,3.10
2018-05-13T21:42:27.675Z,3.63
2018-05-13T21:44:55.644Z,3.33
2018-05-13T21:47:24.551Z,3.20
2018-05-13T21:49:53.116Z,3.30
2018-05-13T21:52:21.031Z,3.03
2018-05-13T21:54:48.656Z,3.37
2018-05-13T21:57:16.633Z,3.97
2018-05-13T21:59:44.727Z,3.43
2018-05-13T22:02:12.355Z,4.30
2018-05-13T22:04:39.860Z,3.53
2018-05-13T22:07:07.361Z,3.83
2018-05-13T22:09:34.827Z,3.37
2018-05-13T22:12:03.266Z,7.90
2018-05-13T22:14:30.708Z,4.13
2018-05-13T22:16:58.481Z,3.37
2018-05-13T22:19:26.414Z,4.20
2018-05-13T22:21:54.279Z,4.40
2018-05-13T22:24:22.036Z,6.23
2018-05-13T22:26:49.859Z,4.30
2018-05-13T22:29:17.560Z,4.27
2018-05-13T22:31:45.530Z,5.40
2018-05-13T22:34:13.450Z,6.33
2018-05-13T22:36:40.857Z,4.97
2018-05-13T22:39:08.744Z,7.67
2018-05-13T22:41:37.285Z,6.93
2018-05-13T22:44:04.743Z,5.60
2018-05-13T22:46:32.322Z,11.50
2018-05-13T22:49:00.312Z,5.93
2018-05-13T22:51:27.766Z,7.83
2018-05-13T22:53:55.310Z,6.83
2018-05-13T22:56:23.068Z,7.83
2018-05-13T22:58:51.043Z,13.20
2018-05-13T23:01:18.860Z,10.70
2018-05-13T23:03:46.368Z,5.97
2018-05-13T23:06:14.134Z,14.57
2018-05-13T23:08:41.495Z,9.00
2018-05-13T23:11:09.498Z,8.13
2018-05-13T23:13:37.017Z,11.37
2018-05-13T23:16:05.203Z,8.20
2018-05-13T23:18:32.589Z,6.50
2018-05-13T23:21:00.211Z,6.43
2018-05-13T23:23:28.088Z,7.43
2018-05-13T23:25:55.534Z,6.10
2018-05-13T23:28:22.961Z,15.53
2018-05-13T23:30:50.415Z,9.03
2018-05-13T23:33:17.934Z,12.90
2018-05-13T23:35:45.673Z,13.20
2018-05-13T23:38:13.446Z,8.67
2018-05-13T23:40:41.314Z,17.77
2018-05-13T23:43:09.592Z,16.87
2018-05-13T23:45:38.033Z,8.00
2018-05-13T23:48:05.479Z,6.90
2018-05-13T23:50:33.107Z,6.30
2018-05-13T23:53:00.509Z,6.37
2018-05-13T23:55:27.891Z,6.70
2018-05-13T23:57:56.068Z,9.60
